Station History

Weather Underground - logo

Station Historical Data
Daily Summary for May 17, 2018 Units:  Both    English   Metric
« Previous Day
Next Day »
Daily Weekly Monthly Yearly Custom
  High: Low: Average:
Temperature: 80.2 °F /  26.8 °C 52.3 °F /  11.3 °C 66.6 °F /  19.2 °C
Dew Point: 56.7 °F /  13.7 °C 47.9 °F /  8.8 °C 50.8 °F /  10.4 °C
Humidity: 86 % 34 % 60 %
Wind Speed: 5.0 mph /  8 km/h - 1.3 mph /  2.1 km/h
Wind Gust: 5.0 mph /  8 km/h - -
Wind:- - WSW
Pressure: 30.00 in /  1015.8 hPa 29.86 in /  1011.1 hPa -
Precipitation: 0.00 in /  0 mm    
Historical Graphs
 
 
Tabular Data for May 17, 2018
Time Temperature Dew Point Pressure Wind Wind Speed Wind Gust Humidity Rainfall Rate (Hourly)
00:00 59.9 °F /  15.5 °C 49.3 °F /  9.6 °C 29.98 in /  1015.1 hPa Calm     68 % 0.00 in /  0 mm
00:05 59.8 °F /  15.4 °C 49.2 °F /  9.6 °C 29.98 in /  1015.1 hPa Calm     68 % 0.00 in /  0 mm
00:10 59.7 °F /  15.4 °C 49.1 °F /  9.5 °C 29.97 in /  1014.8 hPa Calm     68 % 0.00 in /  0 mm
00:15 59.7 °F /  15.4 °C 49.1 °F /  9.5 °C 29.97 in /  1014.8 hPa Calm     68 % 0.00 in /  0 mm
00:20 59.6 °F /  15.3 °C 49.0 °F /  9.4 °C 29.97 in /  1014.8 hPa Calm     68 % 0.00 in /  0 mm
00:25 59.1 °F /  15.1 °C 49.3 °F /  9.6 °C 29.97 in /  1014.8 hPa Calm     70 % 0.00 in /  0 mm
00:30 58.8 °F /  14.9 °C 49.8 °F /  9.9 °C 29.98 in /  1015.1 hPa Calm     72 % 0.00 in /  0 mm
00:35 58.5 °F /  14.7 °C 49.5 °F /  9.7 °C 29.98 in /  1015.1 hPa Calm     72 % 0.00 in /  0 mm
00:40 58.1 °F /  14.5 °C 49.1 °F /  9.5 °C 29.97 in /  1014.8 hPa Calm     72 % 0.00 in /  0 mm
00:45 58.1 °F /  14.5 °C 49.1 °F /  9.5 °C 29.98 in /  1015.1 hPa Calm     72 % 0.00 in /  0 mm
00:50 58.1 °F /  14.5 °C 49.1 °F /  9.5 °C 29.97 in /  1014.8 hPa Calm     72 % 0.00 in /  0 mm
00:55 58.4 °F /  14.7 °C 49.0 °F /  9.4 °C 29.98 in /  1015.1 hPa North 1.0 mph /  1.6 km/h   71 % 0.00 in /  0 mm
01:00 58.7 °F /  14.8 °C 48.9 °F /  9.4 °C 29.98 in /  1015.1 hPa NNE 1.2 mph /  1.9 km/h 1.2 mph /  1.9 km/h 70 % 0.00 in /  0 mm
01:05 58.8 °F /  14.9 °C 49.0 °F /  9.4 °C 29.97 in /  1014.8 hPa WNW 1.0 mph /  1.6 km/h 1.0 mph /  1.6 km/h 70 % 0.00 in /  0 mm
01:10 59.0 °F /  15 °C 48.8 °F /  9.3 °C 29.97 in /  1014.8 hPa NW 1.2 mph /  1.9 km/h 1.2 mph /  1.9 km/h 69 % 0.00 in /  0 mm
01:15 59.0 °F /  15 °C 48.8 °F /  9.3 °C 29.97 in /  1014.8 hPa Calm     69 % 0.00 in /  0 mm
01:20 58.8 °F /  14.9 °C 48.6 °F /  9.2 °C 29.97 in /  1014.8 hPa Calm     69 % 0.00 in /  0 mm
01:25 58.4 °F /  14.7 °C 48.7 °F /  9.3 °C 29.97 in /  1014.8 hPa Calm     70 % 0.00 in /  0 mm
01:31 58.3 °F /  14.6 °C 48.6 °F /  9.2 °C 29.97 in /  1014.8 hPa Calm   0.4 mph /  0.6 km/h 70 % 0.00 in /  0 mm
01:36 58.2 °F /  14.6 °C 48.5 °F /  9.2 °C 29.97 in /  1014.8 hPa Calm     70 % 0.00 in /  0 mm
01:41 58.0 °F /  14.4 °C 48.6 °F /  9.2 °C 29.97 in /  1014.8 hPa Calm   0.1 mph /  0.2 km/h 71 % 0.00 in /  0 mm
01:46 57.8 °F /  14.3 °C 48.5 °F /  9.2 °C 29.97 in /  1014.8 hPa NW 2.0 mph /  3.2 km/h 2.0 mph /  3.2 km/h 71 % 0.00 in /  0 mm
01:51 57.6 °F /  14.2 °C 48.6 °F /  9.2 °C 29.97 in /  1014.8 hPa NW 1.2 mph /  1.9 km/h 1.2 mph /  1.9 km/h 72 % 0.00 in /  0 mm
01:56 57.3 °F /  14.1 °C 48.3 °F /  9.1 °C 29.97 in /  1014.8 hPa NW 2.3 mph /  3.7 km/h 2.3 mph /  3.7 km/h 72 % 0.00 in /  0 mm
02:01 57.1 °F /  13.9 °C 48.5 °F /  9.2 °C 29.97 in /  1014.8 hPa Calm     73 % 0.00 in /  0 mm
02:06 57.0 °F /  13.9 °C 48.4 °F /  9.1 °C 29.97 in /  1014.8 hPa NNW 1.0 mph /  1.6 km/h 1.0 mph /  1.6 km/h 73 % 0.00 in /  0 mm
02:11 56.9 °F /  13.8 °C 48.7 °F /  9.3 °C 29.97 in /  1014.8 hPa Calm     74 % 0.00 in /  0 mm
02:16 56.8 °F /  13.8 °C 48.6 °F /  9.2 °C 29.97 in /  1014.8 hPa Calm     74 % 0.00 in /  0 mm
02:21 56.7 °F /  13.7 °C 48.5 °F /  9.2 °C 29.96 in /  1014.4 hPa Calm     74 % 0.00 in /  0 mm
02:26 56.7 °F /  13.7 °C 48.5 °F /  9.2 °C 29.96 in /  1014.4 hPa NNW 1.2 mph /  1.9 km/h 1.2 mph /  1.9 km/h 74 % 0.00 in /  0 mm
02:31 56.5 °F /  13.6 °C 48.7 °F /  9.3 °C 29.96 in /  1014.4 hPa WNW 1.2 mph /  1.9 km/h 1.2 mph /  1.9 km/h 75 % 0.00 in /  0 mm
02:36 56.3 °F /  13.5 °C 48.8 °F /  9.3 °C 29.96 in /  1014.4 hPa WNW 1.2 mph /  1.9 km/h   76 % 0.00 in /  0 mm
02:41 56.1 °F /  13.4 °C 48.6 °F /  9.2 °C 29.96 in /  1014.4 hPa Calm     76 % 0.00 in /  0 mm
02:46 56.0 °F /  13.3 °C 48.9 °F /  9.4 °C 29.97 in /  1014.8 hPa North 1.2 mph /  1.9 km/h 1.2 mph /  1.9 km/h 77 % 0.00 in /  0 mm
02:51 55.8 °F /  13.2 °C 48.7 °F /  9.3 °C 29.97 in /  1014.8 hPa Calm     77 % 0.00 in /  0 mm
02:56 55.8 °F /  13.2 °C 48.7 °F /  9.3 °C 29.97 in /  1014.8 hPa NNW 1.2 mph /  1.9 km/h 1.2 mph /  1.9 km/h 77 % 0.00 in /  0 mm
03:01 55.7 °F /  13.2 °C 48.9 °F /  9.4 °C 29.96 in /  1014.4 hPa Calm     78 % 0.00 in /  0 mm
03:06 55.5 °F /  13.1 °C 48.8 °F /  9.3 °C 29.97 in /  1014.8 hPa NNW 2.3 mph /  3.7 km/h 2.3 mph /  3.7 km/h 78 % 0.00 in /  0 mm
03:11 55.4 °F /  13 °C 49.0 °F /  9.4 °C 29.97 in /  1014.8 hPa Calm     79 % 0.00 in /  0 mm
03:16 55.3 °F /  12.9 °C 48.9 °F /  9.4 °C 29.97 in /  1014.8 hPa Calm     79 % 0.00 in /  0 mm
03:21 55.2 °F /  12.9 °C 48.8 °F /  9.3 °C 29.97 in /  1014.8 hPa Calm     79 % 0.00 in /  0 mm
03:26 55.1 °F /  12.8 °C 48.7 °F /  9.3 °C 29.97 in /  1014.8 hPa NW 1.2 mph /  1.9 km/h 1.2 mph /  1.9 km/h 79 % 0.00 in /  0 mm
03:31 55.0 °F /  12.8 °C 48.9 °F /  9.4 °C 29.97 in /  1014.8 hPa Calm     80 % 0.00 in /  0 mm
03:36 54.9 °F /  12.7 °C 48.8 °F /  9.3 °C 29.97 in /  1014.8 hPa Calm     80 % 0.00 in /  0 mm
03:41 54.7 °F /  12.6 °C 48.6 °F /  9.2 °C 29.97 in /  1014.8 hPa Calm     80 % 0.00 in /  0 mm
03:46 54.6 °F /  12.6 °C 48.9 °F /  9.4 °C 29.97 in /  1014.8 hPa Calm     81 % 0.00 in /  0 mm
03:51 54.5 °F /  12.5 °C 48.5 °F /  9.2 °C 29.97 in /  1014.8 hPa Calm     80 % 0.00 in /  0 mm
03:56 54.4 °F /  12.4 °C 48.7 °F /  9.3 °C 29.97 in /  1014.8 hPa Calm     81 % 0.00 in /  0 mm
04:01 54.3 °F /  12.4 °C 48.6 °F /  9.2 °C 29.97 in /  1014.8 hPa Calm     81 % 0.00 in /  0 mm
04:06 54.2 °F /  12.3 °C 48.5 °F /  9.2 °C 29.97 in /  1014.8 hPa Calm     81 % 0.00 in /  0 mm
04:11 54.0 °F /  12.2 °C 48.3 °F /  9.1 °C 29.97 in /  1014.8 hPa Calm     81 % 0.00 in /  0 mm
04:16 53.9 °F /  12.2 °C 48.5 °F /  9.2 °C 29.97 in /  1014.8 hPa Calm     82 % 0.00 in /  0 mm
04:21 53.7 °F /  12.1 °C 48.3 °F /  9.1 °C 29.97 in /  1014.8 hPa Calm     82 % 0.00 in /  0 mm
04:26 53.6 °F /  12 °C 48.2 °F /  9 °C 29.97 in /  1014.8 hPa Calm     82 % 0.00 in /  0 mm
04:31 53.5 °F /  11.9 °C 48.1 °F /  8.9 °C 29.97 in /  1014.8 hPa Calm     82 % 0.00 in /  0 mm
04:36 53.3 °F /  11.8 °C 47.9 °F /  8.8 °C 29.97 in /  1014.8 hPa Calm     82 % 0.00 in /  0 mm
04:41 53.1 °F /  11.7 °C 48.1 °F /  8.9 °C 29.97 in /  1014.8 hPa Calm     83 % 0.00 in /  0 mm
04:46 53.0 °F /  11.7 °C 48.0 °F /  8.9 °C 29.97 in /  1014.8 hPa Calm     83 % 0.00 in /  0 mm
04:51 53.0 °F /  11.7 °C 48.3 °F /  9.1 °C 29.97 in /  1014.8 hPa Calm     84 % 0.00 in /  0 mm
04:56 52.9 °F /  11.6 °C 48.2 °F /  9 °C 29.97 in /  1014.8 hPa Calm     84 % 0.00 in /  0 mm
05:01 52.8 °F /  11.6 °C 48.1 °F /  8.9 °C 29.97 in /  1014.8 hPa NNW 1.2 mph /  1.9 km/h   84 % 0.00 in /  0 mm
05:06 52.8 °F /  11.6 °C 48.1 °F /  8.9 °C 29.98 in /  1015.1 hPa Calm     84 % 0.00 in /  0 mm
05:11 52.8 °F /  11.6 °C 48.1 °F /  8.9 °C 29.98 in /  1015.1 hPa Calm     84 % 0.00 in /  0 mm
05:16 52.7 °F /  11.5 °C 48.0 °F /  8.9 °C 29.97 in /  1014.8 hPa Calm     84 % 0.00 in /  0 mm
05:21 52.6 °F /  11.4 °C 47.9 °F /  8.8 °C 29.98 in /  1015.1 hPa Calm     84 % 0.00 in /  0 mm
05:26 52.6 °F /  11.4 °C 47.9 °F /  8.8 °C 29.98 in /  1015.1 hPa Calm     84 % 0.00 in /  0 mm
05:31 52.7 °F /  11.5 °C 48.0 °F /  8.9 °C 29.98 in /  1015.1 hPa Calm     84 % 0.00 in /  0 mm
05:36 52.7 °F /  11.5 °C 48.0 °F /  8.9 °C 29.98 in /  1015.1 hPa Calm     84 % 0.00 in /  0 mm
05:41 52.7 °F /  11.5 °C 48.3 °F /  9.1 °C 29.98 in /  1015.1 hPa Calm     85 % 0.00 in /  0 mm
05:46 52.7 °F /  11.5 °C 48.0 °F /  8.9 °C 29.98 in /  1015.1 hPa Calm     84 % 0.00 in /  0 mm
05:51 52.6 °F /  11.4 °C 47.9 °F /  8.8 °C 29.98 in /  1015.1 hPa Calm     84 % 0.00 in /  0 mm
05:56 52.5 °F /  11.4 °C 48.1 °F /  8.9 °C 29.98 in /  1015.1 hPa Calm     85 % 0.00 in /  0 mm
06:01 52.5 °F /  11.4 °C 48.1 °F /  8.9 °C 29.98 in /  1015.1 hPa Calm     85 % 0.00 in /  0 mm
06:07 52.5 °F /  11.4 °C 48.1 °F /  8.9 °C 29.98 in /  1015.1 hPa Calm     85 % 0.00 in /  0 mm
06:12 52.4 °F /  11.3 °C 48.0 °F /  8.9 °C 29.98 in /  1015.1 hPa Calm     85 % 0.00 in /  0 mm
06:17 52.4 °F /  11.3 °C 48.0 °F /  8.9 °C 29.98 in /  1015.1 hPa Calm     85 % 0.00 in /  0 mm
06:22 52.3 °F /  11.3 °C 48.2 °F /  9 °C 29.98 in /  1015.1 hPa Calm     86 % 0.00 in /  0 mm
06:27 52.4 °F /  11.3 °C 48.3 °F /  9.1 °C 29.99 in /  1015.5 hPa Calm     86 % 0.00 in /  0 mm
06:32 52.5 °F /  11.4 °C 48.4 °F /  9.1 °C 29.98 in /  1015.1 hPa Calm     86 % 0.00 in /  0 mm
06:37 52.8 °F /  11.6 °C 48.4 °F /  9.1 °C 29.98 in /  1015.1 hPa Calm     85 % 0.00 in /  0 mm
06:42 53.1 °F /  11.7 °C 48.7 °F /  9.3 °C 29.98 in /  1015.1 hPa Calm     85 % 0.00 in /  0 mm
06:47 53.5 °F /  11.9 °C 48.8 °F /  9.3 °C 29.99 in /  1015.5 hPa WNW 1.2 mph /  1.9 km/h 1.2 mph /  1.9 km/h 84 % 0.00 in /  0 mm
06:52 53.8 °F /  12.1 °C 49.1 °F /  9.5 °C 29.99 in /  1015.5 hPa Calm     84 % 0.00 in /  0 mm
06:57 54.3 °F /  12.4 °C 49.2 °F /  9.6 °C 29.99 in /  1015.5 hPa Calm     83 % 0.00 in /  0 mm
07:02 55.0 °F /  12.8 °C 49.6 °F /  9.8 °C 29.99 in /  1015.5 hPa Calm     82 % 0.00 in /  0 mm
07:07 55.6 °F /  13.1 °C 49.5 °F /  9.7 °C 29.99 in /  1015.5 hPa WNW 1.2 mph /  1.9 km/h 1.2 mph /  1.9 km/h 80 % 0.00 in /  0 mm
07:12 55.9 °F /  13.3 °C 49.5 °F /  9.7 °C 29.99 in /  1015.5 hPa Calm     79 % 0.00 in /  0 mm
07:14 56.2 °F /  13.4 °C 49.8 °F /  9.9 °C 29.99 in /  1015.5 hPa Calm     79 % 0.00 in /  0 mm
07:19 56.8 °F /  13.8 °C 50.0 °F /  10 °C 29.99 in /  1015.5 hPa Calm     78 % 0.00 in /  0 mm
07:24 57.0 °F /  13.9 °C 49.9 °F /  9.9 °C 29.99 in /  1015.5 hPa Calm     77 % 0.00 in /  0 mm
07:29 57.8 °F /  14.3 °C 49.9 °F /  9.9 °C 30.00 in /  1015.8 hPa Calm     75 % 0.00 in /  0 mm
07:34 57.9 °F /  14.4 °C 49.7 °F /  9.8 °C 30.00 in /  1015.8 hPa Calm     74 % 0.00 in /  0 mm
07:39 59.4 °F /  15.2 °C 50.7 °F /  10.4 °C 30.00 in /  1015.8 hPa Calm     73 % 0.00 in /  0 mm
07:44 60.1 °F /  15.6 °C 49.9 °F /  9.9 °C 30.00 in /  1015.8 hPa Calm     69 % 0.00 in /  0 mm
07:49 60.3 °F /  15.7 °C 50.1 °F /  10.1 °C 29.99 in /  1015.5 hPa Calm     69 % 0.00 in /  0 mm
07:54 60.8 °F /  16 °C 50.6 °F /  10.3 °C 29.99 in /  1015.5 hPa Calm     69 % 0.00 in /  0 mm
07:59 61.7 °F /  16.5 °C 51.0 °F /  10.6 °C 29.99 in /  1015.5 hPa Calm     68 % 0.00 in /  0 mm
08:04 62.4 °F /  16.9 °C 51.3 °F /  10.7 °C 29.99 in /  1015.5 hPa ESE 1.2 mph /  1.9 km/h 1.2 mph /  1.9 km/h 67 % 0.00 in /  0 mm
08:09 62.3 °F /  16.8 °C 51.2 °F /  10.7 °C 30.00 in /  1015.8 hPa ENE 2.3 mph /  3.7 km/h 2.3 mph /  3.7 km/h 67 % 0.00 in /  0 mm
08:14 61.9 °F /  16.6 °C 51.2 °F /  10.7 °C 29.99 in /  1015.5 hPa WNW 3.0 mph /  4.8 km/h 3.0 mph /  4.8 km/h 68 % 0.00 in /  0 mm
08:19 61.9 °F /  16.6 °C 51.2 °F /  10.7 °C 30.00 in /  1015.8 hPa SSE 3.5 mph /  5.6 km/h 3.5 mph /  5.6 km/h 68 % 0.00 in /  0 mm
08:24 62.0 °F /  16.7 °C 50.9 °F /  10.5 °C 29.99 in /  1015.5 hPa SE 2.3 mph /  3.7 km/h 2.3 mph /  3.7 km/h 67 % 0.00 in /  0 mm
08:29 62.1 °F /  16.7 °C 51.4 °F /  10.8 °C 30.00 in /  1015.8 hPa NE 3.0 mph /  4.8 km/h 3.0 mph /  4.8 km/h 68 % 0.00 in /  0 mm
08:34 62.6 °F /  17 °C 51.5 °F /  10.8 °C 30.00 in /  1015.8 hPa SE 3.0 mph /  4.8 km/h 3.0 mph /  4.8 km/h 67 % 0.00 in /  0 mm
08:39 62.8 °F /  17.1 °C 51.7 °F /  10.9 °C 29.99 in /  1015.5 hPa ENE 3.5 mph /  5.6 km/h 3.5 mph /  5.6 km/h 67 % 0.00 in /  0 mm
08:44 63.1 °F /  17.3 °C 51.1 °F /  10.6 °C 29.99 in /  1015.5 hPa ESE 5.0 mph /  8 km/h 5.0 mph /  8 km/h 65 % 0.00 in /  0 mm
08:49 63.0 °F /  17.2 °C 51.5 °F /  10.8 °C 29.99 in /  1015.5 hPa South 3.5 mph /  5.6 km/h 3.5 mph /  5.6 km/h 66 % 0.00 in /  0 mm
08:54 63.4 °F /  17.4 °C 51.4 °F /  10.8 °C 29.99 in /  1015.5 hPa South 1.2 mph /  1.9 km/h 1.2 mph /  1.9 km/h 65 % 0.00 in /  0 mm
08:59 63.7 °F /  17.6 °C 51.3 °F /  10.7 °C 29.99 in /  1015.5 hPa NW 2.3 mph /  3.7 km/h 2.3 mph /  3.7 km/h 64 % 0.00 in /  0 mm
09:04 64.1 °F /  17.8 °C 51.7 °F /  10.9 °C 29.99 in /  1015.5 hPa South 2.3 mph /  3.7 km/h 2.3 mph /  3.7 km/h 64 % 0.00 in /  0 mm
09:09 64.3 °F /  17.9 °C 51.9 °F /  11.1 °C 29.99 in /  1015.5 hPa South 3.5 mph /  5.6 km/h 3.5 mph /  5.6 km/h 64 % 0.00 in /  0 mm
09:14 64.8 °F /  18.2 °C 52.3 °F /  11.3 °C 29.99 in /  1015.5 hPa SE 1.2 mph /  1.9 km/h   64 % 0.00 in /  0 mm
09:19 65.5 °F /  18.6 °C 52.1 °F /  11.2 °C 29.99 in /  1015.5 hPa SSW 3.0 mph /  4.8 km/h 3.0 mph /  4.8 km/h 62 % 0.00 in /  0 mm
09:24 65.6 °F /  18.7 °C 52.2 °F /  11.2 °C 29.99 in /  1015.5 hPa South 3.5 mph /  5.6 km/h 3.5 mph /  5.6 km/h 62 % 0.00 in /  0 mm
09:29 65.9 °F /  18.8 °C 52.1 °F /  11.2 °C 29.99 in /  1015.5 hPa SSE 1.2 mph /  1.9 km/h 1.2 mph /  1.9 km/h 61 % 0.00 in /  0 mm
09:35 66.2 °F /  19 °C 51.9 °F /  11.1 °C 29.99 in /  1015.5 hPa NW 2.3 mph /  3.7 km/h 2.3 mph /  3.7 km/h 60 % 0.00 in /  0 mm
09:40 66.2 °F /  19 °C 52.8 °F /  11.6 °C 29.99 in /  1015.5 hPa SSW 2.3 mph /  3.7 km/h 2.3 mph /  3.7 km/h 62 % 0.00 in /  0 mm
09:45 66.0 °F /  18.9 °C 52.6 °F /  11.4 °C 29.99 in /  1015.5 hPa South 3.5 mph /  5.6 km/h 3.5 mph /  5.6 km/h 62 % 0.00 in /  0 mm
09:50 66.4 °F /  19.1 °C 52.5 °F /  11.4 °C 29.99 in /  1015.5 hPa SW 3.5 mph /  5.6 km/h 3.5 mph /  5.6 km/h 61 % 0.00 in /  0 mm
09:55 66.4 °F /  19.1 °C 51.2 °F /  10.7 °C 29.99 in /  1015.5 hPa WSW 1.2 mph /  1.9 km/h 1.2 mph /  1.9 km/h 58 % 0.00 in /  0 mm
10:00 66.1 °F /  18.9 °C 51.8 °F /  11 °C 29.98 in /  1015.1 hPa South 1.2 mph /  1.9 km/h 1.2 mph /  1.9 km/h 60 % 0.00 in /  0 mm
10:05 67.0 °F /  19.4 °C 53.1 °F /  11.7 °C 29.98 in /  1015.1 hPa East 1.2 mph /  1.9 km/h 1.2 mph /  1.9 km/h 61 % 0.00 in /  0 mm
10:10 67.4 °F /  19.7 °C 53.0 °F /  11.7 °C 29.98 in /  1015.1 hPa South 3.5 mph /  5.6 km/h 3.5 mph /  5.6 km/h 60 % 0.00 in /  0 mm
10:15 67.9 °F /  19.9 °C 53.5 °F /  11.9 °C 29.98 in /  1015.1 hPa SW 1.2 mph /  1.9 km/h 1.2 mph /  1.9 km/h 60 % 0.00 in /  0 mm
10:20 68.1 °F /  20.1 °C 52.3 °F /  11.3 °C 29.98 in /  1015.1 hPa NNW 1.2 mph /  1.9 km/h 1.2 mph /  1.9 km/h 57 % 0.00 in /  0 mm
10:25 67.6 °F /  19.8 °C 52.3 °F /  11.3 °C 29.98 in /  1015.1 hPa SSE 2.3 mph /  3.7 km/h 2.3 mph /  3.7 km/h 58 % 0.00 in /  0 mm
10:30 67.6 °F /  19.8 °C 51.8 °F /  11 °C 29.98 in /  1015.1 hPa NW 3.5 mph /  5.6 km/h 3.5 mph /  5.6 km/h 57 % 0.00 in /  0 mm
10:35 67.3 °F /  19.6 °C 52.9 °F /  11.6 °C 29.98 in /  1015.1 hPa SE 1.2 mph /  1.9 km/h 1.2 mph /  1.9 km/h 60 % 0.00 in /  0 mm
10:40 67.9 °F /  19.9 °C 52.1 °F /  11.2 °C 29.98 in /  1015.1 hPa ESE 3.5 mph /  5.6 km/h 3.5 mph /  5.6 km/h 57 % 0.00 in /  0 mm
10:45 68.3 °F /  20.2 °C 53.4 °F /  11.9 °C 29.97 in /  1014.8 hPa ESE 2.3 mph /  3.7 km/h   59 % 0.00 in /  0 mm
10:50 68.9 °F /  20.5 °C 54.4 °F /  12.4 °C 29.97 in /  1014.8 hPa SSE 1.2 mph /  1.9 km/h   60 % 0.00 in /  0 mm
10:55 69.7 °F /  20.9 °C 52.8 °F /  11.6 °C 29.97 in /  1014.8 hPa NW 2.3 mph /  3.7 km/h 2.3 mph /  3.7 km/h 55 % 0.00 in /  0 mm
11:00 69.9 °F /  21.1 °C 53.5 °F /  11.9 °C 29.97 in /  1014.8 hPa ESE 1.2 mph /  1.9 km/h 1.2 mph /  1.9 km/h 56 % 0.00 in /  0 mm
11:05 70.5 °F /  21.4 °C 54.5 °F /  12.5 °C 29.97 in /  1014.8 hPa SE 1.2 mph /  1.9 km/h   57 % 0.00 in /  0 mm
11:10 71.1 °F /  21.7 °C 53.6 °F /  12 °C 29.97 in /  1014.8 hPa SSE 1.2 mph /  1.9 km/h 1.2 mph /  1.9 km/h 54 % 0.00 in /  0 mm
11:15 70.8 °F /  21.6 °C 53.8 °F /  12.1 °C 29.97 in /  1014.8 hPa ESE 3.5 mph /  5.6 km/h 3.5 mph /  5.6 km/h 55 % 0.00 in /  0 mm
11:20 71.0 °F /  21.7 °C 53.0 °F /  11.7 °C 29.97 in /  1014.8 hPa NW 2.3 mph /  3.7 km/h 2.3 mph /  3.7 km/h 53 % 0.00 in /  0 mm
11:25 70.9 °F /  21.6 °C 52.4 °F /  11.3 °C 29.97 in /  1014.8 hPa WNW 2.3 mph /  3.7 km/h 2.3 mph /  3.7 km/h 52 % 0.00 in /  0 mm
11:30 70.9 °F /  21.6 °C 54.4 °F /  12.4 °C 29.97 in /  1014.8 hPa NW 2.3 mph /  3.7 km/h   56 % 0.00 in /  0 mm
11:35 71.1 °F /  21.7 °C 53.1 °F /  11.7 °C 29.96 in /  1014.4 hPa ENE 1.2 mph /  1.9 km/h 1.2 mph /  1.9 km/h 53 % 0.00 in /  0 mm
11:40 71.6 °F /  22 °C 54.6 °F /  12.6 °C 29.97 in /  1014.8 hPa West 3.5 mph /  5.6 km/h 3.5 mph /  5.6 km/h 55 % 0.00 in /  0 mm
11:45 72.2 °F /  22.3 °C 52.5 °F /  11.4 °C 29.96 in /  1014.4 hPa West 1.2 mph /  1.9 km/h 1.2 mph /  1.9 km/h 50 % 0.00 in /  0 mm
11:50 72.2 °F /  22.3 °C 53.1 °F /  11.7 °C 29.96 in /  1014.4 hPa WNW 1.2 mph /  1.9 km/h   51 % 0.00 in /  0 mm
11:55 72.5 °F /  22.5 °C 52.8 °F /  11.6 °C 29.96 in /  1014.4 hPa North 3.5 mph /  5.6 km/h 3.5 mph /  5.6 km/h 50 % 0.00 in /  0 mm
12:00 72.3 °F /  22.4 °C 53.2 °F /  11.8 °C 29.96 in /  1014.4 hPa NW 3.5 mph /  5.6 km/h 3.5 mph /  5.6 km/h 51 % 0.00 in /  0 mm
12:05 72.3 °F /  22.4 °C 53.2 °F /  11.8 °C 29.95 in /  1014.1 hPa WNW 3.5 mph /  5.6 km/h 3.5 mph /  5.6 km/h 51 % 0.00 in /  0 mm
12:10 73.0 °F /  22.8 °C 52.7 °F /  11.5 °C 29.95 in /  1014.1 hPa NNW 1.2 mph /  1.9 km/h   49 % 0.00 in /  0 mm
12:15 73.2 °F /  22.9 °C 54.0 °F /  12.2 °C 29.95 in /  1014.1 hPa Calm     51 % 0.00 in /  0 mm
12:20 74.4 °F /  23.6 °C 56.7 °F /  13.7 °C 29.95 in /  1014.1 hPa NNW 3.5 mph /  5.6 km/h 3.5 mph /  5.6 km/h 54 % 0.00 in /  0 mm
12:25 74.5 °F /  23.6 °C 52.9 °F /  11.6 °C 29.95 in /  1014.1 hPa West 2.3 mph /  3.7 km/h 2.3 mph /  3.7 km/h 47 % 0.00 in /  0 mm
12:30 74.2 °F /  23.4 °C 53.8 °F /  12.1 °C 29.95 in /  1014.1 hPa NW 2.3 mph /  3.7 km/h 2.3 mph /  3.7 km/h 49 % 0.00 in /  0 mm
12:36 75.0 °F /  23.9 °C 54.5 °F /  12.5 °C 29.95 in /  1014.1 hPa NNW 2.0 mph /  3.2 km/h 2.0 mph /  3.2 km/h 49 % 0.00 in /  0 mm
12:41 74.9 °F /  23.8 °C 52.7 °F /  11.5 °C 29.95 in /  1014.1 hPa East 2.3 mph /  3.7 km/h 2.3 mph /  3.7 km/h 46 % 0.00 in /  0 mm
12:46 74.4 °F /  23.6 °C 51.7 °F /  10.9 °C 29.95 in /  1014.1 hPa NW 2.3 mph /  3.7 km/h 2.3 mph /  3.7 km/h 45 % 0.00 in /  0 mm
12:51 74.6 °F /  23.7 °C 53.0 °F /  11.7 °C 29.95 in /  1014.1 hPa West 2.3 mph /  3.7 km/h 2.3 mph /  3.7 km/h 47 % 0.00 in /  0 mm
12:56 75.3 °F /  24.1 °C 52.5 °F /  11.4 °C 29.94 in /  1013.8 hPa NW 1.2 mph /  1.9 km/h 1.2 mph /  1.9 km/h 45 % 0.00 in /  0 mm
13:01 75.6 °F /  24.2 °C 52.1 °F /  11.2 °C 29.94 in /  1013.8 hPa NW 3.5 mph /  5.6 km/h 3.5 mph /  5.6 km/h 44 % 0.00 in /  0 mm
13:06 75.1 °F /  23.9 °C 52.9 °F /  11.6 °C 29.94 in /  1013.8 hPa NW 1.2 mph /  1.9 km/h 1.2 mph /  1.9 km/h 46 % 0.00 in /  0 mm
13:11 75.7 °F /  24.3 °C 52.2 °F /  11.2 °C 29.94 in /  1013.8 hPa NNW 2.3 mph /  3.7 km/h 2.3 mph /  3.7 km/h 44 % 0.00 in /  0 mm
13:16 76.4 °F /  24.7 °C 54.1 °F /  12.3 °C 29.94 in /  1013.8 hPa NE 1.2 mph /  1.9 km/h 1.2 mph /  1.9 km/h 46 % 0.00 in /  0 mm
13:21 77.0 °F /  25 °C 52.8 °F /  11.6 °C 29.94 in /  1013.8 hPa NNE 1.2 mph /  1.9 km/h 1.2 mph /  1.9 km/h 43 % 0.00 in /  0 mm
13:26 76.8 °F /  24.9 °C 52.6 °F /  11.4 °C 29.94 in /  1013.8 hPa NW 2.3 mph /  3.7 km/h 2.3 mph /  3.7 km/h 43 % 0.00 in /  0 mm
13:31 76.8 °F /  24.9 °C 50.6 °F /  10.3 °C 29.94 in /  1013.8 hPa ENE 1.2 mph /  1.9 km/h 1.2 mph /  1.9 km/h 40 % 0.00 in /  0 mm
13:36 77.0 °F /  25 °C 54.0 °F /  12.2 °C 29.94 in /  1013.8 hPa NW 2.3 mph /  3.7 km/h 2.3 mph /  3.7 km/h 45 % 0.00 in /  0 mm
13:41 77.7 °F /  25.4 °C 53.4 °F /  11.9 °C 29.94 in /  1013.8 hPa Calm   0.1 mph /  0.2 km/h 43 % 0.00 in /  0 mm
13:46 77.5 °F /  25.3 °C 51.9 °F /  11.1 °C 29.94 in /  1013.8 hPa North 2.3 mph /  3.7 km/h 2.3 mph /  3.7 km/h 41 % 0.00 in /  0 mm
13:51 77.8 °F /  25.4 °C 52.2 °F /  11.2 °C 29.93 in /  1013.4 hPa ESE 1.2 mph /  1.9 km/h   41 % 0.00 in /  0 mm
13:56 78.1 °F /  25.6 °C 52.5 °F /  11.4 °C 29.93 in /  1013.4 hPa Calm     41 % 0.00 in /  0 mm
14:01 78.2 °F /  25.7 °C 52.6 °F /  11.4 °C 29.93 in /  1013.4 hPa WNW 2.3 mph /  3.7 km/h 2.3 mph /  3.7 km/h 41 % 0.00 in /  0 mm
14:06 78.1 °F /  25.6 °C 53.1 °F /  11.7 °C 29.93 in /  1013.4 hPa West 2.3 mph /  3.7 km/h 2.3 mph /  3.7 km/h 42 % 0.00 in /  0 mm
14:11 78.0 °F /  25.6 °C 54.3 °F /  12.4 °C 29.93 in /  1013.4 hPa South 2.3 mph /  3.7 km/h 2.3 mph /  3.7 km/h 44 % 0.00 in /  0 mm
14:16 78.8 °F /  26 °C 53.1 °F /  11.7 °C 29.93 in /  1013.4 hPa NNW 3.5 mph /  5.6 km/h 3.5 mph /  5.6 km/h 41 % 0.00 in /  0 mm
14:21 78.2 °F /  25.7 °C 52.6 °F /  11.4 °C 29.93 in /  1013.4 hPa NW 3.5 mph /  5.6 km/h 3.5 mph /  5.6 km/h 41 % 0.00 in /  0 mm
14:26 77.8 °F /  25.4 °C 52.2 °F /  11.2 °C 29.92 in /  1013.1 hPa East 3.5 mph /  5.6 km/h 3.5 mph /  5.6 km/h 41 % 0.00 in /  0 mm
14:31 78.0 °F /  25.6 °C 52.4 °F /  11.3 °C 29.92 in /  1013.1 hPa West 3.5 mph /  5.6 km/h 3.5 mph /  5.6 km/h 41 % 0.00 in /  0 mm
14:36 77.7 °F /  25.4 °C 50.8 °F /  10.4 °C 29.92 in /  1013.1 hPa NW 3.5 mph /  5.6 km/h 3.5 mph /  5.6 km/h 39 % 0.00 in /  0 mm
14:41 77.5 °F /  25.3 °C 50.6 °F /  10.3 °C 29.92 in /  1013.1 hPa NNW 3.5 mph /  5.6 km/h 3.5 mph /  5.6 km/h 39 % 0.00 in /  0 mm
14:46 77.5 °F /  25.3 °C 49.9 °F /  9.9 °C 29.92 in /  1013.1 hPa WNW 2.3 mph /  3.7 km/h 2.3 mph /  3.7 km/h 38 % 0.00 in /  0 mm
14:51 77.5 °F /  25.3 °C 49.9 °F /  9.9 °C 29.91 in /  1012.8 hPa NW 2.3 mph /  3.7 km/h 2.3 mph /  3.7 km/h 38 % 0.00 in /  0 mm
14:56 78.3 °F /  25.7 °C 52.7 °F /  11.5 °C 29.91 in /  1012.8 hPa SSE 2.3 mph /  3.7 km/h   41 % 0.00 in /  0 mm
15:01 79.1 °F /  26.2 °C 52.7 °F /  11.5 °C 29.91 in /  1012.8 hPa NNW 4.0 mph /  6.4 km/h 4.0 mph /  6.4 km/h 40 % 0.00 in /  0 mm
15:06 78.6 °F /  25.9 °C 52.3 °F /  11.3 °C 29.91 in /  1012.8 hPa NW 3.5 mph /  5.6 km/h 3.5 mph /  5.6 km/h 40 % 0.00 in /  0 mm
15:11 78.7 °F /  25.9 °C 53.0 °F /  11.7 °C 29.91 in /  1012.8 hPa WNW 2.3 mph /  3.7 km/h 2.3 mph /  3.7 km/h 41 % 0.00 in /  0 mm
15:16 78.8 °F /  26 °C 51.7 °F /  10.9 °C 29.91 in /  1012.8 hPa NNW 3.0 mph /  4.8 km/h 3.0 mph /  4.8 km/h 39 % 0.00 in /  0 mm
15:21 79.0 °F /  26.1 °C 51.2 °F /  10.7 °C 29.90 in /  1012.4 hPa SW 1.2 mph /  1.9 km/h 1.2 mph /  1.9 km/h 38 % 0.00 in /  0 mm
15:26 79.1 °F /  26.2 °C 53.4 °F /  11.9 °C 29.90 in /  1012.4 hPa WNW 3.5 mph /  5.6 km/h 3.5 mph /  5.6 km/h 41 % 0.00 in /  0 mm
15:31 79.1 °F /  26.2 °C 52.0 °F /  11.1 °C 29.90 in /  1012.4 hPa NW 3.5 mph /  5.6 km/h 3.5 mph /  5.6 km/h 39 % 0.00 in /  0 mm
15:36 78.8 °F /  26 °C 52.4 °F /  11.3 °C 29.90 in /  1012.4 hPa NW 3.5 mph /  5.6 km/h 3.5 mph /  5.6 km/h 40 % 0.00 in /  0 mm
15:42 78.4 °F /  25.8 °C 52.7 °F /  11.5 °C 29.90 in /  1012.4 hPa WNW 3.5 mph /  5.6 km/h 3.5 mph /  5.6 km/h 41 % 0.00 in /  0 mm
15:47 77.9 °F /  25.5 °C 50.9 °F /  10.5 °C 29.90 in /  1012.4 hPa WSW 3.5 mph /  5.6 km/h 3.5 mph /  5.6 km/h 39 % 0.00 in /  0 mm
15:50 78.0 °F /  25.6 °C 51.7 °F /  10.9 °C 29.90 in /  1012.4 hPa NW 2.3 mph /  3.7 km/h 2.3 mph /  3.7 km/h 40 % 0.00 in /  0 mm
15:55 78.9 °F /  26.1 °C 51.8 °F /  11 °C 29.89 in /  1012.1 hPa NNE 3.5 mph /  5.6 km/h 3.5 mph /  5.6 km/h 39 % 0.00 in /  0 mm
16:00 78.7 °F /  25.9 °C 51.7 °F /  10.9 °C 29.89 in /  1012.1 hPa West 3.5 mph /  5.6 km/h 3.5 mph /  5.6 km/h 39 % 0.00 in /  0 mm
16:05 78.5 °F /  25.8 °C 52.2 °F /  11.2 °C 29.89 in /  1012.1 hPa NW 3.5 mph /  5.6 km/h 3.5 mph /  5.6 km/h 40 % 0.00 in /  0 mm
16:10 79.0 °F /  26.1 °C 52.6 °F /  11.4 °C 29.89 in /  1012.1 hPa NW 3.5 mph /  5.6 km/h 3.5 mph /  5.6 km/h 40 % 0.00 in /  0 mm
16:15 79.3 °F /  26.3 °C 53.6 °F /  12 °C 29.89 in /  1012.1 hPa NE 2.3 mph /  3.7 km/h 2.3 mph /  3.7 km/h 41 % 0.00 in /  0 mm
16:20 79.5 °F /  26.4 °C 52.4 °F /  11.3 °C 29.89 in /  1012.1 hPa NNW 3.5 mph /  5.6 km/h 3.5 mph /  5.6 km/h 39 % 0.00 in /  0 mm
16:25 78.8 °F /  26 °C 51.7 °F /  10.9 °C 29.89 in /  1012.1 hPa WNW 2.3 mph /  3.7 km/h 2.3 mph /  3.7 km/h 39 % 0.00 in /  0 mm
16:30 78.9 °F /  26.1 °C 51.8 °F /  11 °C 29.89 in /  1012.1 hPa Calm     39 % 0.00 in /  0 mm
16:35 79.4 °F /  26.3 °C 51.6 °F /  10.9 °C 29.88 in /  1011.7 hPa NW 3.5 mph /  5.6 km/h 3.5 mph /  5.6 km/h 38 % 0.00 in /  0 mm
16:40 79.7 °F /  26.5 °C 52.5 °F /  11.4 °C 29.88 in /  1011.7 hPa SE 1.2 mph /  1.9 km/h 1.2 mph /  1.9 km/h 39 % 0.00 in /  0 mm
16:45 80.2 °F /  26.8 °C 51.6 °F /  10.9 °C 29.88 in /  1011.7 hPa SW 3.5 mph /  5.6 km/h 3.5 mph /  5.6 km/h 37 % 0.00 in /  0 mm
16:50 80.0 °F /  26.7 °C 51.4 °F /  10.8 °C 29.88 in /  1011.7 hPa NW 4.6 mph /  7.4 km/h 4.6 mph /  7.4 km/h 37 % 0.00 in /  0 mm
16:55 79.8 °F /  26.6 °C 50.5 °F /  10.3 °C 29.88 in /  1011.7 hPa WNW 3.5 mph /  5.6 km/h 3.5 mph /  5.6 km/h 36 % 0.00 in /  0 mm
17:00 80.2 °F /  26.8 °C 51.6 °F /  10.9 °C 29.88 in /  1011.7 hPa SW 3.0 mph /  4.8 km/h 3.0 mph /  4.8 km/h 37 % 0.00 in /  0 mm
17:05 79.7 °F /  26.5 °C 50.4 °F /  10.2 °C 29.88 in /  1011.7 hPa NW 3.5 mph /  5.6 km/h 3.5 mph /  5.6 km/h 36 % 0.00 in /  0 mm
17:10 79.4 °F /  26.3 °C 50.1 °F /  10.1 °C 29.88 in /  1011.7 hPa NW 2.3 mph /  3.7 km/h 2.3 mph /  3.7 km/h 36 % 0.00 in /  0 mm
17:15 79.4 °F /  26.3 °C 50.9 °F /  10.5 °C 29.87 in /  1011.4 hPa NW 3.5 mph /  5.6 km/h 3.5 mph /  5.6 km/h 37 % 0.00 in /  0 mm
17:20 79.7 °F /  26.5 °C 49.6 °F /  9.8 °C 29.87 in /  1011.4 hPa North 3.5 mph /  5.6 km/h 3.5 mph /  5.6 km/h 35 % 0.00 in /  0 mm
17:25 79.7 °F /  26.5 °C 48.8 °F /  9.3 °C 29.87 in /  1011.4 hPa NW 3.5 mph /  5.6 km/h 3.5 mph /  5.6 km/h 34 % 0.00 in /  0 mm
17:30 79.3 °F /  26.3 °C 49.3 °F /  9.6 °C 29.87 in /  1011.4 hPa NW 3.5 mph /  5.6 km/h 3.5 mph /  5.6 km/h 35 % 0.00 in /  0 mm
17:35 79.4 °F /  26.3 °C 49.4 °F /  9.7 °C 29.87 in /  1011.4 hPa NW 3.5 mph /  5.6 km/h 3.5 mph /  5.6 km/h 35 % 0.00 in /  0 mm
17:40 79.5 °F /  26.4 °C 49.4 °F /  9.7 °C 29.87 in /  1011.4 hPa NNE 3.5 mph /  5.6 km/h 3.5 mph /  5.6 km/h 35 % 0.00 in /  0 mm
17:45 79.5 °F /  26.4 °C 49.4 °F /  9.7 °C 29.87 in /  1011.4 hPa NNW 1.2 mph /  1.9 km/h 1.2 mph /  1.9 km/h 35 % 0.00 in /  0 mm
17:50 79.3 °F /  26.3 °C 49.3 °F /  9.6 °C 29.87 in /  1011.4 hPa NW 3.5 mph /  5.6 km/h 3.5 mph /  5.6 km/h 35 % 0.00 in /  0 mm
17:55 79.1 °F /  26.2 °C 49.8 °F /  9.9 °C 29.87 in /  1011.4 hPa NW 2.3 mph /  3.7 km/h 2.3 mph /  3.7 km/h 36 % 0.00 in /  0 mm
18:00 79.0 °F /  26.1 °C 49.0 °F /  9.4 °C 29.87 in /  1011.4 hPa NW 3.5 mph /  5.6 km/h 3.5 mph /  5.6 km/h 35 % 0.00 in /  0 mm
18:05 79.0 °F /  26.1 °C 49.0 °F /  9.4 °C 29.86 in /  1011.1 hPa NW 3.5 mph /  5.6 km/h 3.5 mph /  5.6 km/h 35 % 0.00 in /  0 mm
18:10 79.0 °F /  26.1 °C 49.8 °F /  9.9 °C 29.86 in /  1011.1 hPa North 2.3 mph /  3.7 km/h 2.3 mph /  3.7 km/h 36 % 0.00 in /  0 mm
18:15 79.0 °F /  26.1 °C 49.0 °F /  9.4 °C 29.86 in /  1011.1 hPa NW 3.5 mph /  5.6 km/h 3.5 mph /  5.6 km/h 35 % 0.00 in /  0 mm
18:20 78.8 °F /  26 °C 48.8 °F /  9.3 °C 29.86 in /  1011.1 hPa NW 3.5 mph /  5.6 km/h 3.5 mph /  5.6 km/h 35 % 0.00 in /  0 mm
18:26 78.8 °F /  26 °C 48.8 °F /  9.3 °C 29.86 in /  1011.1 hPa West 3.5 mph /  5.6 km/h 3.5 mph /  5.6 km/h 35 % 0.00 in /  0 mm
18:31 78.8 °F /  26 °C 49.6 °F /  9.8 °C 29.86 in /  1011.1 hPa NW 1.2 mph /  1.9 km/h 1.2 mph /  1.9 km/h 36 % 0.00 in /  0 mm
18:36 78.6 °F /  25.9 °C 48.7 °F /  9.3 °C 29.86 in /  1011.1 hPa NW 3.5 mph /  5.6 km/h 3.5 mph /  5.6 km/h 35 % 0.00 in /  0 mm
18:41 78.3 °F /  25.7 °C 49.1 °F /  9.5 °C 29.86 in /  1011.1 hPa WNW 2.3 mph /  3.7 km/h 2.3 mph /  3.7 km/h 36 % 0.00 in /  0 mm
18:46 77.9 °F /  25.5 °C 49.5 °F /  9.7 °C 29.86 in /  1011.1 hPa NW 2.3 mph /  3.7 km/h 2.3 mph /  3.7 km/h 37 % 0.00 in /  0 mm
18:51 77.4 °F /  25.2 °C 49.8 °F /  9.9 °C 29.86 in /  1011.1 hPa NW 1.2 mph /  1.9 km/h 1.2 mph /  1.9 km/h 38 % 0.00 in /  0 mm
18:56 77.0 °F /  25 °C 49.4 °F /  9.7 °C 29.86 in /  1011.1 hPa WNW 1.2 mph /  1.9 km/h 1.2 mph /  1.9 km/h 38 % 0.00 in /  0 mm
19:01 76.6 °F /  24.8 °C 49.1 °F /  9.5 °C 29.86 in /  1011.1 hPa NNE 2.3 mph /  3.7 km/h 2.3 mph /  3.7 km/h 38 % 0.00 in /  0 mm
19:06 76.3 °F /  24.6 °C 48.8 °F /  9.3 °C 29.86 in /  1011.1 hPa NW 1.2 mph /  1.9 km/h 1.2 mph /  1.9 km/h 38 % 0.00 in /  0 mm
19:11 76.0 °F /  24.4 °C 49.2 °F /  9.6 °C 29.86 in /  1011.1 hPa NW 3.5 mph /  5.6 km/h 3.5 mph /  5.6 km/h 39 % 0.00 in /  0 mm
19:16 75.6 °F /  24.2 °C 49.6 °F /  9.8 °C 29.86 in /  1011.1 hPa NW 1.2 mph /  1.9 km/h 1.2 mph /  1.9 km/h 40 % 0.00 in /  0 mm
19:21 75.3 °F /  24.1 °C 49.3 °F /  9.6 °C 29.86 in /  1011.1 hPa Calm     40 % 0.00 in /  0 mm
19:26 75.0 °F /  23.9 °C 49.7 °F /  9.8 °C 29.86 in /  1011.1 hPa Calm     41 % 0.00 in /  0 mm
19:31 74.7 °F /  23.7 °C 49.4 °F /  9.7 °C 29.86 in /  1011.1 hPa NW 1.2 mph /  1.9 km/h 1.2 mph /  1.9 km/h 41 % 0.00 in /  0 mm
19:36 74.3 °F /  23.5 °C 49.1 °F /  9.5 °C 29.86 in /  1011.1 hPa NW 1.0 mph /  1.6 km/h   41 % 0.00 in /  0 mm
19:41 74.0 °F /  23.3 °C 49.4 °F /  9.7 °C 29.86 in /  1011.1 hPa WNW 1.0 mph /  1.6 km/h 1.0 mph /  1.6 km/h 42 % 0.00 in /  0 mm
19:46 73.6 °F /  23.1 °C 49.7 °F /  9.8 °C 29.86 in /  1011.1 hPa WNW 1.2 mph /  1.9 km/h   43 % 0.00 in /  0 mm
19:51 73.1 °F /  22.8 °C 49.3 °F /  9.6 °C 29.86 in /  1011.1 hPa WNW 1.2 mph /  1.9 km/h 1.2 mph /  1.9 km/h 43 % 0.00 in /  0 mm
19:56 72.7 °F /  22.6 °C 49.5 °F /  9.7 °C 29.86 in /  1011.1 hPa Calm     44 % 0.00 in /  0 mm
20:01 72.3 °F /  22.4 °C 49.8 °F /  9.9 °C 29.87 in /  1011.4 hPa Calm     45 % 0.00 in /  0 mm
20:06 72.0 °F /  22.2 °C 49.5 °F /  9.7 °C 29.86 in /  1011.1 hPa Calm   0.1 mph /  0.2 km/h 45 % 0.00 in /  0 mm
20:11 71.7 °F /  22.1 °C 50.4 °F /  10.2 °C 29.87 in /  1011.4 hPa Calm     47 % 0.00 in /  0 mm
20:16 71.5 °F /  21.9 °C 50.8 °F /  10.4 °C 29.87 in /  1011.4 hPa Calm     48 % 0.00 in /  0 mm
20:21 71.1 °F /  21.7 °C 49.8 °F /  9.9 °C 29.87 in /  1011.4 hPa Calm     47 % 0.00 in /  0 mm
20:26 70.8 °F /  21.6 °C 50.7 °F /  10.4 °C 29.87 in /  1011.4 hPa Calm     49 % 0.00 in /  0 mm
20:31 70.4 °F /  21.3 °C 51.4 °F /  10.8 °C 29.87 in /  1011.4 hPa Calm     51 % 0.00 in /  0 mm
20:36 69.9 °F /  21.1 °C 51.5 °F /  10.8 °C 29.87 in /  1011.4 hPa Calm     52 % 0.00 in /  0 mm
20:41 69.5 °F /  20.8 °C 51.1 °F /  10.6 °C 29.87 in /  1011.4 hPa Calm     52 % 0.00 in /  0 mm
20:46 69.1 °F /  20.6 °C 51.2 °F /  10.7 °C 29.87 in /  1011.4 hPa Calm     53 % 0.00 in /  0 mm
20:52 68.7 °F /  20.4 °C 51.4 °F /  10.8 °C 29.88 in /  1011.7 hPa Calm     54 % 0.00 in /  0 mm
20:57 68.3 °F /  20.2 °C 51.0 °F /  10.6 °C 29.88 in /  1011.7 hPa Calm     54 % 0.00 in /  0 mm
21:02 68.0 °F /  20 °C 51.2 °F /  10.7 °C 29.88 in /  1011.7 hPa Calm     55 % 0.00 in /  0 mm
21:07 67.6 °F /  19.8 °C 51.3 °F /  10.7 °C 29.88 in /  1011.7 hPa Calm     56 % 0.00 in /  0 mm
21:12 67.4 °F /  19.7 °C 51.2 °F /  10.7 °C 29.88 in /  1011.7 hPa Calm     56 % 0.00 in /  0 mm
21:17 67.1 °F /  19.5 °C 50.4 °F /  10.2 °C 29.88 in /  1011.7 hPa Calm     55 % 0.00 in /  0 mm
21:22 66.9 °F /  19.4 °C 51.6 °F /  10.9 °C 29.88 in /  1011.7 hPa Calm     58 % 0.00 in /  0 mm
21:27 66.6 °F /  19.2 °C 51.4 °F /  10.8 °C 29.88 in /  1011.7 hPa Calm     58 % 0.00 in /  0 mm
21:32 66.3 °F /  19.1 °C 51.5 °F /  10.8 °C 29.88 in /  1011.7 hPa Calm     59 % 0.00 in /  0 mm
21:37 66.1 °F /  18.9 °C 51.8 °F /  11 °C 29.88 in /  1011.7 hPa Calm     60 % 0.00 in /  0 mm
21:42 66.0 °F /  18.9 °C 52.6 °F /  11.4 °C 29.88 in /  1011.7 hPa Calm     62 % 0.00 in /  0 mm
21:47 65.9 °F /  18.8 °C 52.5 °F /  11.4 °C 29.88 in /  1011.7 hPa Calm     62 % 0.00 in /  0 mm
21:52 65.7 °F /  18.7 °C 52.8 °F /  11.6 °C 29.88 in /  1011.7 hPa Calm     63 % 0.00 in /  0 mm
21:57 65.5 °F /  18.6 °C 53.0 °F /  11.7 °C 29.88 in /  1011.7 hPa Calm     64 % 0.00 in /  0 mm
22:02 65.2 °F /  18.4 °C 53.1 °F /  11.7 °C 29.88 in /  1011.7 hPa Calm     65 % 0.00 in /  0 mm
22:07 64.9 °F /  18.3 °C 53.3 °F /  11.8 °C 29.88 in /  1011.7 hPa Calm     66 % 0.00 in /  0 mm
22:12 64.6 °F /  18.1 °C 53.0 °F /  11.7 °C 29.89 in /  1012.1 hPa Calm     66 % 0.00 in /  0 mm
22:17 64.4 °F /  18 °C 53.2 °F /  11.8 °C 29.89 in /  1012.1 hPa Calm     67 % 0.00 in /  0 mm
22:22 64.4 °F /  18 °C 53.6 °F /  12 °C 29.89 in /  1012.1 hPa Calm     68 % 0.00 in /  0 mm
22:27 64.3 °F /  17.9 °C 52.7 °F /  11.5 °C 29.89 in /  1012.1 hPa Calm     66 % 0.00 in /  0 mm
22:32 64.7 °F /  18.2 °C 51.8 °F /  11 °C 29.89 in /  1012.1 hPa Calm     63 % 0.00 in /  0 mm
22:37 65.2 °F /  18.4 °C 52.7 °F /  11.5 °C 29.89 in /  1012.1 hPa Calm     64 % 0.00 in /  0 mm
22:42 65.7 °F /  18.7 °C 52.8 °F /  11.6 °C 29.89 in /  1012.1 hPa Calm     63 % 0.00 in /  0 mm
22:47 65.9 °F /  18.8 °C 52.5 °F /  11.4 °C 29.89 in /  1012.1 hPa Calm     62 % 0.00 in /  0 mm
22:52 65.7 °F /  18.7 °C 52.8 °F /  11.6 °C 29.89 in /  1012.1 hPa Calm     63 % 0.00 in /  0 mm
22:57 65.4 °F /  18.6 °C 53.7 °F /  12.1 °C 29.89 in /  1012.1 hPa Calm     66 % 0.00 in /  0 mm
23:02 65.1 °F /  18.4 °C 53.5 °F /  11.9 °C 29.89 in /  1012.1 hPa Calm     66 % 0.00 in /  0 mm
23:07 65.0 °F /  18.3 °C 55.0 °F /  12.8 °C 29.89 in /  1012.1 hPa Calm     70 % 0.00 in /  0 mm
23:12 64.6 °F /  18.1 °C 53.8 °F /  12.1 °C 29.89 in /  1012.1 hPa Calm     68 % 0.00 in /  0 mm
23:17 64.3 °F /  17.9 °C 54.3 °F /  12.4 °C 29.89 in /  1012.1 hPa Calm     70 % 0.00 in /  0 mm
23:22 64.0 °F /  17.8 °C 54.8 °F /  12.7 °C 29.89 in /  1012.1 hPa Calm     72 % 0.00 in /  0 mm
23:27 63.5 °F /  17.5 °C 54.3 °F /  12.4 °C 29.89 in /  1012.1 hPa Calm     72 % 0.00 in /  0 mm
23:32 63.1 °F /  17.3 °C 53.5 °F /  11.9 °C 29.89 in /  1012.1 hPa Calm     71 % 0.00 in /  0 mm
23:37 63.0 °F /  17.2 °C 53.4 °F /  11.9 °C 29.89 in /  1012.1 hPa Calm     71 % 0.00 in /  0 mm
23:42 62.9 °F /  17.2 °C 53.4 °F /  11.9 °C 29.89 in /  1012.1 hPa Calm     71 % 0.00 in /  0 mm
23:48 62.7 °F /  17.1 °C 53.2 °F /  11.8 °C 29.89 in /  1012.1 hPa Calm     71 % 0.00 in /  0 mm
23:53 62.6 °F /  17 °C 53.4 °F /  11.9 °C 29.89 in /  1012.1 hPa Calm     72 % 0.00 in /  0 mm
23:58 62.4 °F /  16.9 °C 52.9 °F /  11.6 °C 29.89 in /  1012.1 hPa Calm     71 % 0.00 in /  0 mm
Park Place, Exeter, Tulare County, California, USA
Compliments of Weather Underground - 2.75 mb